sensor_id;sensor_type;location;lat;lon;timestamp;pressure;altitude;pressure_sealevel;temperature;humidity
72548;BME280;60570;50.848;6.776;2022-10-01T00:00:19;99662.44;;;15.10;54.98
72548;BME280;60570;50.848;6.776;2022-10-01T00:01:19;99658.44;;;15.07;55.38
72548;BME280;60570;50.848;6.776;2022-10-01T00:02:20;99666.84;;;15.07;55.18
72548;BME280;60570;50.848;6.776;2022-10-01T00:03:22;99663.56;;;15.02;55.39
72548;BME280;60570;50.848;6.776;2022-10-01T00:04:23;99657.66;;;15.10;55.12
72548;BME280;60570;50.848;6.776;2022-10-01T00:05:24;99658.94;;;15.20;54.85
72548;BME280;60570;50.848;6.776;2022-10-01T00:06:24;99661.75;;;15.23;54.49
72548;BME280;60570;50.848;6.776;2022-10-01T00:07:25;99668.50;;;15.15;54.84
72548;BME280;60570;50.848;6.776;2022-10-01T00:08:26;99662.53;;;15.17;55.01
72548;BME280;60570;50.848;6.776;2022-10-01T00:09:27;99666.91;;;15.18;54.86
72548;BME280;60570;50.848;6.776;2022-10-01T00:10:27;99666.47;;;15.12;55.41
72548;BME280;60570;50.848;6.776;2022-10-01T00:11:29;99664.41;;;15.06;55.63
72548;BME280;60570;50.848;6.776;2022-10-01T00:12:30;99660.88;;;15.12;55.15
72548;BME280;60570;50.848;6.776;2022-10-01T00:13:31;99670.84;;;15.10;55.23
72548;BME280;60570;50.848;6.776;2022-10-01T00:14:31;99670.47;;;15.11;55.17
72548;BME280;60570;50.848;6.776;2022-10-01T00:15:32;99671.25;;;15.12;55.30
72548;BME280;60570;50.848;6.776;2022-10-01T00:16:32;99672.06;;;15.12;55.12
72548;BME280;60570;50.848;6.776;2022-10-01T00:17:33;99665.28;;;15.13;55.30
72548;BME280;60570;50.848;6.776;2022-10-01T00:18:38;99672.50;;;15.18;55.05
72548;BME280;60570;50.848;6.776;2022-10-01T00:19:39;99672.91;;;15.16;54.96
72548;BME280;60570;50.848;6.776;2022-10-01T00:20:40;99670.06;;;15.09;55.49
72548;BME280;60570;50.848;6.776;2022-10-01T00:21:42;99666.06;;;15.10;55.42
72548;BME280;60570;50.848;6.776;2022-10-01T00:22:43;99673.72;;;15.17;55.26
72548;BME280;60570;50.848;6.776;2022-10-01T00:23:43;99661.81;;;15.27;55.07
72548;BME280;60570;50.848;6.776;2022-10-01T00:24:45;99668.16;;;15.24;55.08
72548;BME280;60570;50.848;6.776;2022-10-01T00:25:46;99668.56;;;15.22;55.15
72548;BME280;60570;50.848;6.776;2022-10-01T00:26:49;99666.47;;;15.12;55.81
72548;BME280;60570;50.848;6.776;2022-10-01T00:27:50;99657.25;;;15.12;55.67
72548;BME280;60570;50.848;6.776;2022-10-01T00:28:59;99654.53;;;15.15;55.54
72548;BME280;60570;50.848;6.776;2022-10-01T00:30:02;99659.28;;;15.11;55.85
72548;BME280;60570;50.848;6.776;2022-10-01T00:31:05;99658.03;;;15.05;56.40
72548;BME280;60570;50.848;6.776;2022-10-01T00:32:06;99650.41;;;15.06;55.92
72548;BME280;60570;50.848;6.776;2022-10-01T00:33:06;99652.78;;;15.04;56.42
72548;BME280;60570;50.848;6.776;2022-10-01T00:34:08;99650.00;;;15.04;56.45
72548;BME280;60570;50.848;6.776;2022-10-01T00:35:10;99647.66;;;15.09;56.14
72548;BME280;60570;50.848;6.776;2022-10-01T00:36:11;99641.69;;;15.11;56.33
72548;BME280;60570;50.848;6.776;2022-10-01T00:37:12;99642.44;;;15.08;56.37
72548;BME280;60570;50.848;6.776;2022-10-01T00:38:12;99642.09;;;15.09;56.47
72548;BME280;60570;50.848;6.776;2022-10-01T00:39:14;99632.47;;;15.10;56.11
72548;BME280;60570;50.848;6.776;2022-10-01T00:40:15;99633.72;;;15.13;56.54
72548;BME280;60570;50.848;6.776;2022-10-01T00:41:17;99630.88;;;15.09;56.41
72548;BME280;60570;50.848;6.776;2022-10-01T00:42:21;99627.28;;;15.09;56.24
72548;BME280;60570;50.848;6.776;2022-10-01T00:43:24;99629.63;;;15.00;57.23
72548;BME280;60570;50.848;6.776;2022-10-01T00:44:34;99614.81;;;14.99;57.38
72548;BME280;60570;50.848;6.776;2022-10-01T00:45:35;99619.19;;;14.97;57.47
72548;BME280;60570;50.848;6.776;2022-10-01T00:46:42;99630.31;;;14.90;57.51
72548;BME280;60570;50.848;6.776;2022-10-01T00:47:49;99615.94;;;14.91;57.85
72548;BME280;60570;50.848;6.776;2022-10-01T00:49:06;99608.72;;;14.90;58.06
72548;BME280;60570;50.848;6.776;2022-10-01T00:50:28;99604.75;;;14.91;57.82
72548;BME280;60570;50.848;6.776;2022-10-01T00:51:37;99603.13;;;14.90;57.63
72548;BME280;60570;50.848;6.776;2022-10-01T00:52:41;99599.97;;;14.92;57.93
72548;BME280;60570;50.848;6.776;2022-10-01T00:53:43;99605.59;;;14.95;58.33
72548;BME280;60570;50.848;6.776;2022-10-01T00:54:53;99607.13;;;14.89;58.19
72548;BME280;60570;50.848;6.776;2022-10-01T00:55:56;99600.31;;;14.87;58.66
72548;BME280;60570;50.848;6.776;2022-10-01T00:57:00;99595.16;;;14.92;58.37
72548;BME280;60570;50.848;6.776;2022-10-01T00:58:03;99588.72;;;14.88;58.35
72548;BME280;60570;50.848;6.776;2022-10-01T00:59:05;99586.41;;;14.94;58.34
72548;BME280;60570;50.848;6.776;2022-10-01T01:00:07;99586.78;;;14.92;58.52
72548;BME280;60570;50.848;6.776;2022-10-01T01:01:08;99584.34;;;14.87;58.66
72548;BME280;60570;50.848;6.776;2022-10-01T01:02:09;99580.44;;;14.99;58.53
72548;BME280;60570;50.848;6.776;2022-10-01T01:03:10;99582.00;;;14.96;58.47
72548;BME280;60570;50.848;6.776;2022-10-01T01:04:11;99580.47;;;15.02;58.18
72548;BME280;60570;50.848;6.776;2022-10-01T01:05:18;99571.31;;;15.05;58.01
72548;BME280;60570;50.848;6.776;2022-10-01T01:06:19;99576.06;;;14.98;58.24
72548;BME280;60570;50.848;6.776;2022-10-01T01:07:20;99569.66;;;15.01;58.52
72548;BME280;60570;50.848;6.776;2022-10-01T01:08:21;99571.25;;;15.02;58.47
72548;BME280;60570;50.848;6.776;2022-10-01T01:09:43;99565.31;;;15.03;58.62
72548;BME280;60570;50.848;6.776;2022-10-01T01:13:34;99555.22;;;14.92;59.16
72548;BME280;60570;50.848;6.776;2022-10-01T01:16:05;99556.41;;;14.91;59.18
72548;BME280;60570;50.848;6.776;2022-10-01T01:17:16;99551.63;;;14.91;58.73
72548;BME280;60570;50.848;6.776;2022-10-01T01:18:30;99548.00;;;14.91;59.59
72548;BME280;60570;50.848;6.776;2022-10-01T01:21:14;99531.31;;;14.98;59.01
72548;BME280;60570;50.848;6.776;2022-10-01T01:22:20;99532.88;;;14.99;59.66
72548;BME280;60570;50.848;6.776;2022-10-01T01:23:45;99527.69;;;14.94;59.56
72548;BME280;60570;50.848;6.776;2022-10-01T01:24:56;99530.09;;;14.99;59.42
72548;BME280;60570;50.848;6.776;2022-10-01T01:28:02;99533.69;;;14.96;59.31
72548;BME280;60570;50.848;6.776;2022-10-01T01:29:03;99522.09;;;14.97;59.45
72548;BME280;60570;50.848;6.776;2022-10-01T01:31:11;99523.69;;;14.98;59.41
72548;BME280;60570;50.848;6.776;2022-10-01T01:32:19;99520.13;;;14.98;59.41
72548;BME280;60570;50.848;6.776;2022-10-01T01:33:23;99524.09;;;14.97;59.52
72548;BME280;60570;50.848;6.776;2022-10-01T01:34:29;99530.91;;;14.99;59.50
72548;BME280;60570;50.848;6.776;2022-10-01T01:35:38;99513.31;;;14.99;59.29
72548;BME280;60570;50.848;6.776;2022-10-01T01:36:44;99507.69;;;14.95;59.75
72548;BME280;60570;50.848;6.776;2022-10-01T01:37:51;99511.34;;;15.03;59.42
72548;BME280;60570;50.848;6.776;2022-10-01T01:39:01;99499.75;;;15.01;59.27
72548;BME280;60570;50.848;6.776;2022-10-01T01:40:05;99494.53;;;14.99;59.77
72548;BME280;60570;50.848;6.776;2022-10-01T01:41:10;99499.72;;;14.97;59.66
72548;BME280;60570;50.848;6.776;2022-10-01T01:42:25;99495.69;;;14.95;60.30
72548;BME280;60570;50.848;6.776;2022-10-01T01:43:30;99492.56;;;15.00;60.09
72548;BME280;60570;50.848;6.776;2022-10-01T01:44:36;99487.75;;;15.04;59.26
72548;BME280;60570;50.848;6.776;2022-10-01T01:45:38;99498.06;;;14.89;60.13
72548;BME280;60570;50.848;6.776;2022-10-01T01:46:40;99487.28;;;14.91;60.28
72548;BME280;60570;50.848;6.776;2022-10-01T01:47:44;99486.09;;;14.92;60.23
72548;BME280;60570;50.848;6.776;2022-10-01T01:48:46;99489.66;;;14.86;60.08
72548;BME280;60570;50.848;6.776;2022-10-01T01:49:51;99480.88;;;14.91;60.24
72548;BME280;60570;50.848;6.776;2022-10-01T01:51:01;99476.84;;;14.81;60.39
72548;BME280;60570;50.848;6.776;2022-10-01T01:52:11;99470.09;;;14.86;60.44
72548;BME280;60570;50.848;6.776;2022-10-01T01:53:15;99459.75;;;14.93;60.17
72548;BME280;60570;50.848;6.776;2022-10-01T01:54:16;99458.53;;;14.94;59.99
72548;BME280;60570;50.848;6.776;2022-10-01T01:55:18;99459.75;;;14.97;59.98
72548;BME280;60570;50.848;6.776;2022-10-01T01:56:19;99466.56;;;14.96;60.30
72548;BME280;60570;50.848;6.776;2022-10-01T01:57:19;99450.16;;;14.94;60.04
72548;BME280;60570;50.848;6.776;2022-10-01T01:58:20;99450.97;;;14.95;59.85
72548;BME280;60570;50.848;6.776;2022-10-01T01:59:21;99442.97;;;14.93;60.22
72548;BME280;60570;50.848;6.776;2022-10-01T02:00:22;99432.59;;;14.94;60.34
72548;BME280;60570;50.848;6.776;2022-10-01T02:01:42;99426.19;;;14.97;59.95
72548;BME280;60570;50.848;6.776;2022-10-01T02:02:50;99430.97;;;14.96;60.03
72548;BME280;60570;50.848;6.776;2022-10-01T02:03:52;99415.44;;;15.02;59.95
72548;BME280;60570;50.848;6.776;2022-10-01T02:04:59;99408.25;;;14.98;59.65
72548;BME280;60570;50.848;6.776;2022-10-01T02:06:26;99404.63;;;15.01;60.08
72548;BME280;60570;50.848;6.776;2022-10-01T02:09:02;99393.06;;;15.02;59.92
72548;BME280;60570;50.848;6.776;2022-10-01T02:11:45;99392.25;;;14.98;60.53
72548;BME280;60570;50.848;6.776;2022-10-01T02:14:20;99384.97;;;14.83;61.11
72548;BME280;60570;50.848;6.776;2022-10-01T02:16:52;99376.56;;;14.76;61.72
72548;BME280;60570;50.848;6.776;2022-10-01T02:18:51;99375.34;;;14.77;61.09
72548;BME280;60570;50.848;6.776;2022-10-01T02:19:39;99369.03;;;14.87;60.81
72548;BME280;60570;50.848;6.776;2022-10-01T02:22:49;99359.06;;;14.97;60.68
72548;BME280;60570;50.848;6.776;2022-10-01T02:23:53;99365.06;;;14.95;60.70
72548;BME280;60570;50.848;6.776;2022-10-01T02:24:59;99359.09;;;15.00;60.82
72548;BME280;60570;50.848;6.776;2022-10-01T02:26:07;99344.28;;;14.96;60.91
72548;BME280;60570;50.848;6.776;2022-10-01T02:27:35;99344.31;;;15.00;61.30
72548;BME280;60570;50.848;6.776;2022-10-01T02:28:40;99343.47;;;14.92;61.34
72548;BME280;60570;50.848;6.776;2022-10-01T02:29:43;99338.66;;;14.86;61.31
72548;BME280;60570;50.848;6.776;2022-10-01T02:30:45;99322.22;;;14.77;61.57
72548;BME280;60570;50.848;6.776;2022-10-01T02:31:47;99321.41;;;14.77;62.13
72548;BME280;60570;50.848;6.776;2022-10-01T02:32:50;99334.94;;;14.61;62.52
72548;BME280;60570;50.848;6.776;2022-10-01T02:33:53;99330.59;;;14.70;61.95
72548;BME280;60570;50.848;6.776;2022-10-01T02:34:55;99322.97;;;14.64;62.10
72548;BME280;60570;50.848;6.776;2022-10-01T02:35:57;99334.53;;;14.59;62.32
72548;BME280;60570;50.848;6.776;2022-10-01T02:37:00;99321.72;;;14.54;62.33
72548;BME280;60570;50.848;6.776;2022-10-01T02:38:05;99324.13;;;14.59;62.61
72548;BME280;60570;50.848;6.776;2022-10-01T02:39:06;99329.28;;;14.54;62.79
72548;BME280;60570;50.848;6.776;2022-10-01T02:40:10;99327.75;;;14.63;62.43
72548;BME280;60570;50.848;6.776;2022-10-01T02:41:20;99333.75;;;14.65;62.04
72548;BME280;60570;50.848;6.776;2022-10-01T02:42:27;99334.13;;;14.60;62.95
72548;BME280;60570;50.848;6.776;2022-10-01T02:43:33;99344.09;;;14.61;62.68
72548;BME280;60570;50.848;6.776;2022-10-01T02:44:36;99346.50;;;14.59;63.02
72548;BME280;60570;50.848;6.776;2022-10-01T02:45:39;99335.75;;;14.65;62.70
72548;BME280;60570;50.848;6.776;2022-10-01T02:47:03;99342.53;;;14.64;62.81
72548;BME280;60570;50.848;6.776;2022-10-01T02:48:09;99359.31;;;14.67;62.68
72548;BME280;60570;50.848;6.776;2022-10-01T02:49:11;99361.69;;;14.65;62.32
72548;BME280;60570;50.848;6.776;2022-10-01T02:50:13;99359.72;;;14.66;62.27
72548;BME280;60570;50.848;6.776;2022-10-01T02:51:24;99370.50;;;14.67;62.01
72548;BME280;60570;50.848;6.776;2022-10-01T02:52:54;99366.53;;;14.72;61.83
72548;BME280;60570;50.848;6.776;2022-10-01T02:54:06;99371.38;;;14.78;61.67
72548;BME280;60570;50.848;6.776;2022-10-01T02:55:11;99372.56;;;14.81;61.44
72548;BME280;60570;50.848;6.776;2022-10-01T02:56:13;99374.53;;;14.73;61.99
72548;BME280;60570;50.848;6.776;2022-10-01T02:57:35;99375.34;;;14.77;61.76
72548;BME280;60570;50.848;6.776;2022-10-01T02:58:36;99368.19;;;14.80;61.68
72548;BME280;60570;50.848;6.776;2022-10-01T02:59:36;99374.94;;;14.75;62.25
72548;BME280;60570;50.848;6.776;2022-10-01T03:00:37;99373.75;;;14.73;61.92
72548;BME280;60570;50.848;6.776;2022-10-01T03:01:38;99368.16;;;14.76;61.67
72548;BME280;60570;50.848;6.776;2022-10-01T03:02:38;99368.16;;;14.73;61.61
72548;BME280;60570;50.848;6.776;2022-10-01T03:03:38;99361.78;;;14.76;61.93
72548;BME280;60570;50.848;6.776;2022-10-01T03:04:41;99360.56;;;14.77;61.59
72548;BME280;60570;50.848;6.776;2022-10-01T03:05:41;99363.78;;;14.79;61.69
72548;BME280;60570;50.848;6.776;2022-10-01T03:06:42;99354.97;;;14.77;61.53
72548;BME280;60570;50.848;6.776;2022-10-01T03:07:43;99343.38;;;14.71;61.93
72548;BME280;60570;50.848;6.776;2022-10-01T03:08:43;99354.19;;;14.76;62.19
72548;BME280;60570;50.848;6.776;2022-10-01T03:09:44;99351.00;;;14.78;61.56
72548;BME280;60570;50.848;6.776;2022-10-01T03:10:44;99346.22;;;14.82;61.75
72548;BME280;60570;50.848;6.776;2022-10-01T03:11:45;99346.59;;;14.77;62.12
72548;BME280;60570;50.848;6.776;2022-10-01T03:12:46;99339.00;;;14.77;61.72
72548;BME280;60570;50.848;6.776;2022-10-01T03:13:47;99335.88;;;14.86;61.45
72548;BME280;60570;50.848;6.776;2022-10-01T03:14:47;99334.66;;;14.83;61.83
72548;BME280;60570;50.848;6.776;2022-10-01T03:15:48;99330.22;;;14.79;61.84
72548;BME280;60570;50.848;6.776;2022-10-01T03:16:49;99339.00;;;14.77;62.18
72548;BME280;60570;50.848;6.776;2022-10-01T03:17:51;99341.38;;;14.75;62.25
72548;BME280;60570;50.848;6.776;2022-10-01T03:18:51;99345.41;;;14.74;62.17
72548;BME280;60570;50.848;6.776;2022-10-01T03:19:52;99329.47;;;14.85;62.16
72548;BME280;60570;50.848;6.776;2022-10-01T03:20:52;99330.22;;;14.75;61.69
72548;BME280;60570;50.848;6.776;2022-10-01T03:21:53;99326.22;;;14.73;62.00
72548;BME280;60570;50.848;6.776;2022-10-01T03:22:55;99325.41;;;14.69;62.48
72548;BME280;60570;50.848;6.776;2022-10-01T03:23:56;99333.81;;;14.72;62.34
72548;BME280;60570;50.848;6.776;2022-10-01T03:24:56;99338.97;;;14.70;62.32
72548;BME280;60570;50.848;6.776;2022-10-01T03:25:56;99326.56;;;14.68;62.65
72548;BME280;60570;50.848;6.776;2022-10-01T03:26:57;99330.59;;;14.70;62.44
72548;BME280;60570;50.848;6.776;2022-10-01T03:27:58;99330.59;;;14.74;62.22
72548;BME280;60570;50.848;6.776;2022-10-01T03:28:58;99340.56;;;14.71;62.04
72548;BME280;60570;50.848;6.776;2022-10-01T03:29:58;99339.41;;;14.76;61.80
72548;BME280;60570;50.848;6.776;2022-10-01T03:31:09;99337.44;;;14.80;62.48
72548;BME280;60570;50.848;6.776;2022-10-01T03:32:10;99328.63;;;14.74;62.30
72548;BME280;60570;50.848;6.776;2022-10-01T03:33:10;99321.06;;;14.78;61.87
72548;BME280;60570;50.848;6.776;2022-10-01T03:34:11;99327.41;;;14.75;62.41
72548;BME280;60570;50.848;6.776;2022-10-01T03:35:12;99326.66;;;14.78;62.19
72548;BME280;60570;50.848;6.776;2022-10-01T03:36:13;99319.44;;;14.77;62.51
72548;BME280;60570;50.848;6.776;2022-10-01T03:37:13;99317.03;;;14.76;62.20
72548;BME280;60570;50.848;6.776;2022-10-01T03:38:14;99308.25;;;14.77;62.34
72548;BME280;60570;50.848;6.776;2022-10-01T03:39:15;99306.25;;;14.74;62.19
72548;BME280;60570;50.848;6.776;2022-10-01T03:40:15;99305.47;;;14.77;62.03
72548;BME280;60570;50.848;6.776;2022-10-01T03:41:15;99311.84;;;14.78;62.48
72548;BME280;60570;50.848;6.776;2022-10-01T03:42:16;99309.06;;;14.74;62.41
72548;BME280;60570;50.848;6.776;2022-10-01T03:43:16;99302.66;;;14.74;62.13
72548;BME280;60570;50.848;6.776;2022-10-01T03:44:17;99315.41;;;14.75;62.17
72548;BME280;60570;50.848;6.776;2022-10-01T03:45:17;99307.03;;;14.75;62.14
72548;BME280;60570;50.848;6.776;2022-10-01T03:46:18;99303.47;;;14.74;62.36
72548;BME280;60570;50.848;6.776;2022-10-01T03:47:18;99308.66;;;14.79;62.21
72548;BME280;60570;50.848;6.776;2022-10-01T03:48:19;99306.69;;;14.83;61.71
72548;BME280;60570;50.848;6.776;2022-10-01T03:49:21;99311.47;;;14.79;62.23
72548;BME280;60570;50.848;6.776;2022-10-01T03:50:21;99300.66;;;14.71;62.47
72548;BME280;60570;50.848;6.776;2022-10-01T03:51:22;99299.84;;;14.70;62.63
72548;BME280;60570;50.848;6.776;2022-10-01T03:52:23;99301.06;;;14.76;62.30
72548;BME280;60570;50.848;6.776;2022-10-01T03:53:26;99297.06;;;14.70;62.55
72548;BME280;60570;50.848;6.776;2022-10-01T03:54:27;99305.84;;;14.76;61.95
72548;BME280;60570;50.848;6.776;2022-10-01T03:55:29;99307.84;;;14.72;61.83
72548;BME280;60570;50.848;6.776;2022-10-01T03:56:30;99290.63;;;14.66;62.95
72548;BME280;60570;50.848;6.776;2022-10-01T03:57:30;99298.63;;;14.68;62.56
72548;BME280;60570;50.848;6.776;2022-10-01T03:58:31;99290.66;;;14.73;62.40
72548;BME280;60570;50.848;6.776;2022-10-01T03:59:31;99288.69;;;14.74;62.31
72548;BME280;60570;50.848;6.776;2022-10-01T04:00:32;99295.41;;;14.66;62.73
72548;BME280;60570;50.848;6.776;2022-10-01T04:01:32;99292.63;;;14.69;62.13
72548;BME280;60570;50.848;6.776;2022-10-01T04:02:33;99282.28;;;14.77;62.15
72548;BME280;60570;50.848;6.776;2022-10-01T04:03:33;99284.25;;;14.69;62.86
72548;BME280;60570;50.848;6.776;2022-10-01T04:04:34;99280.69;;;14.69;62.09
72548;BME280;60570;50.848;6.776;2022-10-01T04:05:34;99270.66;;;14.64;63.73
72548;BME280;60570;50.848;6.776;2022-10-01T04:06:35;99281.44;;;14.62;62.82
72548;BME280;60570;50.848;6.776;2022-10-01T04:07:35;99292.22;;;14.64;62.83
72548;BME280;60570;50.848;6.776;2022-10-01T04:08:36;99274.63;;;14.63;62.97
72548;BME280;60570;50.848;6.776;2022-10-01T04:09:37;99272.69;;;14.71;62.91
72548;BME280;60570;50.848;6.776;2022-10-01T04:10:38;99265.09;;;14.75;62.55
72548;BME280;60570;50.848;6.776;2022-10-01T04:11:38;99268.69;;;14.72;62.63
72548;BME280;60570;50.848;6.776;2022-10-01T04:12:39;99269.91;;;14.71;62.95
72548;BME280;60570;50.848;6.776;2022-10-01T04:13:39;99273.06;;;14.69;63.04
72548;BME280;60570;50.848;6.776;2022-10-01T04:14:40;99259.50;;;14.71;63.26
72548;BME280;60570;50.848;6.776;2022-10-01T04:15:40;99255.88;;;14.67;63.38
72548;BME280;60570;50.848;6.776;2022-10-01T04:16:41;99262.72;;;14.77;62.58
72548;BME280;60570;50.848;6.776;2022-10-01T04:17:42;99267.13;;;14.78;62.27
72548;BME280;60570;50.848;6.776;2022-10-01T04:18:43;99267.09;;;14.71;62.82
72548;BME280;60570;50.848;6.776;2022-10-01T04:19:43;99251.91;;;14.72;62.99
72548;BME280;60570;50.848;6.776;2022-10-01T04:20:43;99249.47;;;14.63;63.38
72548;BME280;60570;50.848;6.776;2022-10-01T04:21:44;99238.31;;;14.63;63.20
72548;BME280;60570;50.848;6.776;2022-10-01T04:22:45;99238.34;;;14.67;63.28
72548;BME280;60570;50.848;6.776;2022-10-01T04:23:46;99228.75;;;14.68;63.06
72548;BME280;60570;50.848;6.776;2022-10-01T04:24:46;99218.38;;;14.72;63.01
72548;BME280;60570;50.848;6.776;2022-10-01T04:25:47;99215.19;;;14.73;63.28
72548;BME280;60570;50.848;6.776;2022-10-01T04:26:49;99209.97;;;14.65;63.69
72548;BME280;60570;50.848;6.776;2022-10-01T04:28:58;99197.59;;;14.62;63.75
72548;BME280;60570;50.848;6.776;2022-10-01T04:29:58;99183.59;;;14.62;63.74
72548;BME280;60570;50.848;6.776;2022-10-01T04:30:59;99166.06;;;14.69;63.91
72548;BME280;60570;50.848;6.776;2022-10-01T04:32:18;99149.25;;;14.62;64.73
72548;BME280;60570;50.848;6.776;2022-10-01T04:33:20;99111.34;;;14.64;63.78
72548;BME280;60570;50.848;6.776;2022-10-01T04:34:21;99106.97;;;14.74;64.72
72548;BME280;60570;50.848;6.776;2022-10-01T04:35:42;99099.34;;;14.60;65.11
72548;BME280;60570;50.848;6.776;2022-10-01T04:36:42;99132.13;;;14.67;65.00
72548;BME280;60570;50.848;6.776;2022-10-01T04:37:43;99140.47;;;14.63;64.95
72548;BME280;60570;50.848;6.776;2022-10-01T04:38:43;99143.31;;;14.67;64.30
72548;BME280;60570;50.848;6.776;2022-10-01T04:39:44;99139.28;;;14.61;64.17
72548;BME280;60570;50.848;6.776;2022-10-01T04:40:44;99156.03;;;14.54;64.35
72548;BME280;60570;50.848;6.776;2022-10-01T04:41:45;99150.06;;;14.55;64.75
72548;BME280;60570;50.848;6.776;2022-10-01T04:42:45;99167.59;;;14.52;64.60
72548;BME280;60570;50.848;6.776;2022-10-01T04:43:46;99165.66;;;14.67;64.09
72548;BME280;60570;50.848;6.776;2022-10-01T04:44:47;99166.88;;;14.80;63.88
72548;BME280;60570;50.848;6.776;2022-10-01T04:45:47;99179.28;;;14.86;63.81
72548;BME280;60570;50.848;6.776;2022-10-01T04:46:48;99178.06;;;14.76;64.13
72548;BME280;60570;50.848;6.776;2022-10-01T04:47:50;99196.41;;;14.81;63.56
72548;BME280;60570;50.848;6.776;2022-10-01T04:48:51;99196.81;;;14.83;63.78
72548;BME280;60570;50.848;6.776;2022-10-01T04:49:51;99206.81;;;14.80;63.51
72548;BME280;60570;50.848;6.776;2022-10-01T04:50:51;99216.81;;;14.78;63.33
72548;BME280;60570;50.848;6.776;2022-10-01T04:51:52;99213.97;;;14.67;63.29
72548;BME280;60570;50.848;6.776;2022-10-01T04:52:53;99233.94;;;14.66;63.54
72548;BME280;60570;50.848;6.776;2022-10-01T04:53:53;99251.09;;;14.68;63.54
72548;BME280;60570;50.848;6.776;2022-10-01T04:54:54;99244.28;;;14.65;63.94
72548;BME280;60570;50.848;6.776;2022-10-01T04:55:55;99243.47;;;14.61;63.60
72548;BME280;60570;50.848;6.776;2022-10-01T04:56:55;99243.53;;;14.65;63.65
72548;BME280;60570;50.848;6.776;2022-10-01T04:57:57;99253.09;;;14.64;64.11
72548;BME280;60570;50.848;6.776;2022-10-01T04:58:57;99242.31;;;14.66;63.50
72548;BME280;60570;50.848;6.776;2022-10-01T04:59:58;99251.88;;;14.61;64.61
72548;BME280;60570;50.848;6.776;2022-10-01T05:00:58;99249.06;;;14.61;64.39
72548;BME280;60570;50.848;6.776;2022-10-01T05:01:59;99250.25;;;14.53;64.19
72548;BME280;60570;50.848;6.776;2022-10-01T05:02:59;99255.06;;;14.56;63.91
72548;BME280;60570;50.848;6.776;2022-10-01T05:04:00;99245.09;;;14.66;63.87
72548;BME280;60570;50.848;6.776;2022-10-01T05:05:01;99252.28;;;14.63;63.30
72548;BME280;60570;50.848;6.776;2022-10-01T05:06:03;99251.06;;;14.57;63.37
72548;BME280;60570;50.848;6.776;2022-10-01T05:07:04;99251.47;;;14.59;63.60
72548;BME280;60570;50.848;6.776;2022-10-01T05:08:04;99253.09;;;14.64;63.45
72548;BME280;60570;50.848;6.776;2022-10-01T05:09:04;99250.69;;;14.62;63.55
72548;BME280;60570;50.848;6.776;2022-10-01T05:10:07;99251.88;;;14.61;63.34
72548;BME280;60570;50.848;6.776;2022-10-01T05:11:07;99264.69;;;14.66;64.02
72548;BME280;60570;50.848;6.776;2022-10-01T05:12:08;99258.31;;;14.72;63.00
72548;BME280;60570;50.848;6.776;2022-10-01T05:13:08;99259.91;;;14.66;63.05
72548;BME280;60570;50.848;6.776;2022-10-01T05:14:10;99258.66;;;14.60;63.56
72548;BME280;60570;50.848;6.776;2022-10-01T05:15:11;99251.88;;;14.61;63.13
72548;BME280;60570;50.848;6.776;2022-10-01T05:16:12;99240.69;;;14.61;63.29
72548;BME280;60570;50.848;6.776;2022-10-01T05:17:12;99246.66;;;14.56;63.41
72548;BME280;60570;50.848;6.776;2022-10-01T05:18:14;99250.66;;;14.55;63.85
72548;BME280;60570;50.848;6.776;2022-10-01T05:19:14;99245.50;;;14.57;63.47
72548;BME280;60570;50.848;6.776;2022-10-01T05:20:19;99234.69;;;14.56;63.81
72548;BME280;60570;50.848;6.776;2022-10-01T05:21:20;99249.88;;;14.58;64.19
72548;BME280;60570;50.848;6.776;2022-10-01T05:22:21;99241.88;;;14.57;63.83
72548;BME280;60570;50.848;6.776;2022-10-01T05:23:21;99239.09;;;14.57;63.76
72548;BME280;60570;50.848;6.776;2022-10-01T05:24:22;99238.69;;;14.55;63.95
72548;BME280;60570;50.848;6.776;2022-10-01T05:25:23;99242.66;;;14.50;64.07
72548;BME280;60570;50.848;6.776;2022-10-01T05:26:23;99244.25;;;14.51;63.90
72548;BME280;60570;50.848;6.776;2022-10-01T05:27:25;99248.66;;;14.52;63.55
72548;BME280;60570;50.848;6.776;2022-10-01T05:28:26;99245.44;;;14.54;63.67
72548;BME280;60570;50.848;6.776;2022-10-01T05:29:27;99239.44;;;14.52;63.67
72548;BME280;60570;50.848;6.776;2022-10-01T05:30:27;99243.84;;;14.49;63.73
72548;BME280;60570;50.848;6.776;2022-10-01T05:31:28;99239.84;;;14.50;63.95
72548;BME280;60570;50.848;6.776;2022-10-01T05:32:28;99238.25;;;14.49;63.96
72548;BME280;60570;50.848;6.776;2022-10-01T05:33:30;99235.88;;;14.51;64.08
72548;BME280;60570;50.848;6.776;2022-10-01T05:34:30;99238.28;;;14.60;63.46
72548;BME280;60570;50.848;6.776;2022-10-01T05:35:31;99241.06;;;14.53;63.67
72548;BME280;60570;50.848;6.776;2022-10-01T05:36:31;99236.69;;;14.55;63.37
72548;BME280;60570;50.848;6.776;2022-10-01T05:37:32;99245.09;;;14.59;63.45
72548;BME280;60570;50.848;6.776;2022-10-01T05:38:32;99243.06;;;14.56;63.58
72548;BME280;60570;50.848;6.776;2022-10-01T05:39:36;99248.66;;;14.56;63.37
72548;BME280;60570;50.848;6.776;2022-10-01T05:40:37;99249.06;;;14.61;63.13
72548;BME280;60570;50.848;6.776;2022-10-01T05:41:37;99259.88;;;14.63;63.17
72548;BME280;60570;50.848;6.776;2022-10-01T05:42:44;99251.88;;;14.61;63.60
72548;BME280;60570;50.848;6.776;2022-10-01T05:43:47;99252.69;;;14.62;63.25
72548;BME280;60570;50.848;6.776;2022-10-01T05:44:48;99250.28;;;14.67;63.16
72548;BME280;60570;50.848;6.776;2022-10-01T05:45:49;99260.72;;;14.74;62.87
72548;BME280;60570;50.848;6.776;2022-10-01T05:46:51;99262.25;;;14.57;63.25
72548;BME280;60570;50.848;6.776;2022-10-01T05:47:57;99261.03;;;14.55;63.47
72548;BME280;60570;50.848;6.776;2022-10-01T05:48:58;99258.66;;;14.57;63.51
72548;BME280;60570;50.848;6.776;2022-10-01T05:49:58;99263.91;;;14.69;62.96
72548;BME280;60570;50.848;6.776;2022-10-01T05:50:59;99264.28;;;14.67;63.10
72548;BME280;60570;50.848;6.776;2022-10-01T05:51:59;99265.06;;;14.61;63.55